Time;durP1;ratioP1;P1;durP2;ratioP2;P2;SDS_P1;SDS_P2;PMS_P1;PMS_P2;Temp;Humidity;BMP_temperature;BMP_pressure;BME280_temperature;BME280_humidity;BME280_pressure;Samples;Min_cycle;Max_cycle;Signal;HPM_P1;HPM_P2
2021/06/29 00:01:59;;;;;;;11.00;10.00;;;22.80;25.90;;;;;;6109286;23;20210;-67
2021/06/29 00:04:25;;;;;;;11.53;10.53;;;23.00;1.00;;;;;;6099542;23;20442;-68
2021/06/29 00:06:50;;;;;;;11.20;10.10;;;23.10;1.00;;;;;;6099617;23;20592;-66
2021/06/29 00:09:16;;;;;;;11.00;10.00;;;23.10;1.00;;;;;;6109216;23;20227;-67
2021/06/29 00:11:43;;;;;;;10.20;9.30;;;23.20;1.00;;;;;;6109035;23;20183;-67
2021/06/29 00:14:09;;;;;;;12.10;9.70;;;23.20;1.00;;;;;;6122406;23;20226;-67
2021/06/29 00:16:35;;;;;;;10.67;9.57;;;23.20;1.00;;;;;;6108821;23;20457;-67
2021/06/29 00:19:00;;;;;;;10.57;9.67;;;23.00;1.00;;;;;;6109290;23;20869;-67
2021/06/29 00:21:26;;;;;;;11.33;10.23;;;22.90;1.00;;;;;;6109008;23;20458;-68
2021/06/29 00:23:51;;;;;;;11.40;10.30;;;23.00;1.00;;;;;;6109190;23;20164;-69
2021/06/29 00:26:17;;;;;;;11.67;10.57;;;22.80;1.00;;;;;;6108521;23;20171;-68
2021/06/29 00:28:43;;;;;;;12.13;11.03;;;22.60;92.70;;;;;;6108512;23;20170;-68
2021/06/29 00:31:08;;;;;;;13.40;10.80;;;22.70;99.90;;;;;;6108747;23;20176;-68
2021/06/29 00:33:37;;;;;;;11.43;10.47;;;22.70;75.80;;;;;;6122206;23;20156;-69
2021/06/29 00:36:03;;;;;;;12.07;10.90;;;22.70;76.60;;;;;;6108763;23;20553;-69
2021/06/29 00:38:29;;;;;;;12.67;11.47;;;22.70;66.00;;;;;;6121907;23;20468;-68
2021/06/29 00:40:55;;;;;;;13.10;11.83;;;22.50;99.90;;;;;;6108639;23;20434;-68
2021/06/29 00:43:21;;;;;;;12.50;11.33;;;22.50;99.90;;;;;;6108711;23;20170;-68
2021/06/29 00:45:47;;;;;;;11.70;10.60;;;22.40;99.90;;;;;;6108707;23;20711;-67
2021/06/29 00:48:12;;;;;;;12.60;11.50;;;22.30;99.90;;;;;;6097402;23;20407;-67
2021/06/29 00:50:40;;;;;;;12.73;11.43;;;22.30;99.90;;;;;;6108596;23;20224;-67
2021/06/29 00:53:06;;;;;;;12.43;11.03;;;22.20;99.90;;;;;;6108664;23;20459;-66
2021/06/29 00:55:31;;;;;;;12.50;11.30;;;22.30;99.90;;;;;;6108502;23;20843;-66
2021/06/29 00:57:58;;;;;;;12.30;11.17;;;22.40;99.90;;;;;;6108509;23;20158;-67
2021/06/29 01:00:24;;;;;;;12.23;11.03;;;22.30;99.90;;;;;;6108298;23;20179;-67
2021/06/29 01:02:49;;;;;;;12.53;11.33;;;22.30;99.90;;;;;;6108372;23;20398;-68
2021/06/29 01:05:15;;;;;;;13.03;11.73;;;22.20;99.90;;;;;;6107854;23;20395;-68
2021/06/29 01:07:41;;;;;;;12.63;11.33;;;22.40;99.90;;;;;;6121768;23;20225;-68
2021/06/29 01:10:08;;;;;;;12.27;11.17;;;22.30;99.90;;;;;;6108280;23;20151;-67
2021/06/29 01:12:35;;;;;;;13.50;12.20;;;22.30;99.90;;;;;;6108261;23;20179;-66
2021/06/29 01:15:01;;;;;;;12.40;11.20;;;22.30;99.90;;;;;;6108304;23;20410;-66
2021/06/29 01:17:27;;;;;;;12.13;11.10;;;22.30;99.90;;;;;;6121440;23;20413;-66
2021/06/29 01:19:53;;;;;;;12.70;11.40;;;22.50;99.90;;;;;;6098718;23;20400;-68
2021/06/29 01:22:21;;;;;;;12.70;11.57;;;22.40;99.90;;;;;;6097164;23;20923;-68
2021/06/29 01:24:52;;;;;;;13.03;11.67;;;22.20;99.90;;;;;;6098244;23;20529;-68
2021/06/29 01:27:34;;;;;;;11.87;10.77;;;22.10;99.90;;;;;;6098693;23;20376;-68
2021/06/29 01:32:27;;;;;;;13.23;11.93;;;22.10;99.90;;;;;;6098585;23;20522;-68
2021/06/29 01:34:53;;;;;;;13.63;12.43;;;22.10;99.90;;;;;;6108119;23;20151;-68
2021/06/29 01:37:19;;;;;;;13.10;11.90;;;22.00;99.90;;;;;;6108313;23;20410;-69
2021/06/29 01:39:59;;;;;;;14.00;12.70;;;22.10;99.90;;;;;;6108113;23;20654;-68
2021/06/29 01:42:25;;;;;;;13.93;12.53;;;22.20;99.90;;;;;;6108361;23;20379;-68
2021/06/29 01:44:51;;;;;;;14.90;13.30;;;22.10;99.90;;;;;;6108034;23;20407;-68
2021/06/29 01:48:20;;;;;;;13.60;12.30;;;22.20;99.90;;;;;;6107889;23;20688;-69
2021/06/29 01:50:18;;;;;;;15.40;13.90;;;22.20;99.90;;;;;;6105823;23;20298;-69
2021/06/29 01:52:46;;;;;;;14.50;13.10;;;22.20;99.90;;;;;;6108027;23;20834;-69
2021/06/29 01:55:13;;;;;;;15.13;13.73;;;22.10;99.90;;;;;;6098414;23;20406;-69
2021/06/29 01:57:41;;;;;;;15.10;13.60;;;22.00;99.90;;;;;;6098364;23;20403;-67
2021/06/29 02:00:10;;;;;;;13.77;12.50;;;21.90;99.90;;;;;;6098278;23;20395;-66
2021/06/29 02:02:36;;;;;;;15.03;13.50;;;21.90;99.90;;;;;;6107222;23;20442;-66
2021/06/29 02:05:03;;;;;;;14.33;13.00;;;21.80;99.90;;;;;;6107849;23;20865;-66
2021/06/29 02:07:28;;;;;;;14.63;13.10;;;21.90;99.90;;;;;;6108810;23;20851;-67
2021/06/29 02:09:54;;;;;;;14.73;13.20;;;22.00;99.90;;;;;;6098260;23;20426;-66
2021/06/29 02:12:20;;;;;;;16.43;14.73;;;21.70;99.90;;;;;;6108467;23;20598;-69
2021/06/29 02:14:45;;;;;;;14.20;12.70;;;21.70;99.90;;;;;;6107712;23;20152;-69
2021/06/29 02:17:11;;;;;;;14.83;13.30;;;21.70;99.90;;;;;;6107710;23;20174;-68
2021/06/29 02:19:36;;;;;;;13.20;12.00;;;21.70;99.90;;;;;;6107685;23;20155;-68
2021/06/29 02:22:03;;;;;;;14.60;13.20;;;21.70;99.90;;;;;;6107887;23;20159;-68
2021/06/29 02:24:28;;;;;;;14.17;12.80;;;21.90;99.90;;;;;;6098307;23;20164;-68
2021/06/29 02:26:54;;;;;;;15.57;13.77;;;21.90;99.90;;;;;;6106504;23;20407;-69
2021/06/29 02:29:19;;;;;;;15.37;13.87;;;21.90;99.90;;;;;;6098071;23;20205;-68
2021/06/29 02:31:45;;;;;;;13.83;12.50;;;21.90;99.90;;;;;;6107602;23;20268;-68
2021/06/29 02:34:11;;;;;;;14.03;11.97;;;21.90;99.90;;;;;;6107910;23;20158;-68
2021/06/29 02:36:36;;;;;;;11.53;10.33;;;21.70;99.90;;;;;;6107511;23;20156;-68
2021/06/29 02:39:04;;;;;;;14.00;12.80;;;21.70;99.90;;;;;;6107554;23;20447;-68
2021/06/29 02:41:29;;;;;;;12.80;11.70;;;21.70;99.90;;;;;;6107546;23;20599;-68
2021/06/29 02:43:55;;;;;;;13.20;11.90;;;21.70;99.90;;;;;;6107548;23;20398;-69
2021/06/29 02:46:21;;;;;;;13.23;12.03;;;21.70;99.90;;;;;;6107600;23;20175;-68
2021/06/29 02:48:46;;;;;;;13.43;12.10;;;21.60;99.90;;;;;;6107374;23;20156;-68
2021/06/29 02:51:13;;;;;;;12.87;11.57;;;21.70;99.90;;;;;;6107652;23;20206;-68
2021/06/29 02:53:39;;;;;;;14.33;12.93;;;21.70;99.90;;;;;;6107533;23;20179;-68
2021/06/29 02:56:04;;;;;;;14.03;12.73;;;21.70;99.90;;;;;;6096413;23;20407;-68
2021/06/29 02:58:30;;;;;;;14.97;12.90;;;21.70;99.90;;;;;;6107310;23;20857;-69
2021/06/29 03:00:56;;;;;;;16.23;14.63;;;21.70;99.90;;;;;;6107610;23;20191;-69
2021/06/29 03:03:21;;;;;;;14.50;13.00;;;21.80;99.90;;;;;;6107501;23;20486;-69
2021/06/29 03:05:47;;;;;;;15.20;13.70;;;21.90;99.90;;;;;;6098237;23;20167;-68
2021/06/29 03:08:12;;;;;;;14.57;13.27;;;21.80;99.90;;;;;;6107447;23;20182;-69
2021/06/29 03:10:38;;;;;;;15.67;14.23;;;21.70;99.90;;;;;;6097964;23;20198;-68
2021/06/29 03:13:04;;;;;;;15.40;13.90;;;21.90;99.90;;;;;;6107242;23;20463;-68
2021/06/29 03:15:29;;;;;;;15.20;13.77;;;22.00;99.90;;;;;;6107579;23;20158;-68
2021/06/29 03:17:55;;;;;;;14.50;13.17;;;22.00;99.90;;;;;;6107327;23;20449;-68
2021/06/29 03:20:21;;;;;;;15.80;13.67;;;22.10;99.90;;;;;;6107326;23;20155;-68
2021/06/29 03:22:46;;;;;;;16.43;14.83;;;22.20;99.90;;;;;;6107582;23;20293;-67
2021/06/29 03:25:13;;;;;;;13.93;12.60;;;22.30;99.90;;;;;;6097814;23;20259;-67
2021/06/29 03:27:40;;;;;;;12.50;11.00;;;22.40;99.90;;;;;;6107211;23;20847;-68
2021/06/29 03:30:07;;;;;;;12.00;10.70;;;22.40;99.90;;;;;;6109274;23;20695;-68
2021/06/29 03:32:33;;;;;;;13.23;11.87;;;22.10;99.90;;;;;;6099561;23;20881;-67
2021/06/29 03:34:59;;;;;;;12.90;11.60;;;22.10;99.90;;;;;;6109442;23;20395;-67
2021/06/29 03:37:24;;;;;;;11.37;10.30;;;22.00;99.90;;;;;;6122636;23;20405;-68
2021/06/29 03:39:50;;;;;;;13.73;12.47;;;21.90;99.90;;;;;;6109267;23;20160;-67
2021/06/29 03:42:16;;;;;;;13.23;11.40;;;21.90;99.90;;;;;;6109227;23;20166;-68
2021/06/29 03:44:41;;;;;;;11.80;10.70;;;22.00;99.90;;;;;;6109269;23;20168;-67
2021/06/29 03:47:07;;;;;;;11.80;10.70;;;21.90;99.90;;;;;;6109259;23;20156;-68
2021/06/29 03:49:32;;;;;;;12.93;11.50;;;21.60;99.90;;;;;;6109063;23;20566;-67
2021/06/29 03:52:01;;;;;;;12.03;10.80;;;21.40;99.90;;;;;;6109302;23;20671;-67
2021/06/29 03:54:27;;;;;;;12.00;10.93;;;21.10;99.90;;;;;;6098288;23;20193;-66
2021/06/29 03:56:53;;;;;;;11.00;9.90;;;21.00;99.90;;;;;;6109562;23;20387;-66
2021/06/29 03:59:19;;;;;;;11.83;10.80;;;21.10;99.90;;;;;;6109750;23;20418;-65
2021/06/29 04:01:46;;;;;;;10.77;9.77;;;21.10;99.90;;;;;;6108467;23;20166;-66
2021/06/29 04:04:11;;;;;;;11.87;10.63;;;20.80;99.90;;;;;;6109053;23;20171;-67
2021/06/29 04:06:38;;;;;;;12.23;11.03;;;20.80;99.90;;;;;;6097969;23;20408;-66
2021/06/29 04:09:05;;;;;;;12.37;11.20;;;21.00;99.90;;;;;;6108895;23;20152;-66
2021/06/29 04:11:31;;;;;;;11.40;10.20;;;21.10;99.90;;;;;;6099465;23;20505;-66
2021/06/29 04:13:57;;;;;;;12.80;11.40;;;21.30;99.90;;;;;;6109028;23;20751;-66
2021/06/29 04:16:23;;;;;;;10.70;9.80;;;21.30;99.90;;;;;;6108859;23;20156;-67
2021/06/29 04:18:49;;;;;;;12.10;11.00;;;21.40;99.90;;;;;;6108665;23;20402;-67
2021/06/29 04:21:15;;;;;;;12.63;11.53;;;21.40;99.90;;;;;;6099820;23;20402;-68
2021/06/29 04:23:45;;;;;;;12.83;11.63;;;21.60;99.90;;;;;;6109117;23;20431;-68
2021/06/29 04:26:17;;;;;;;12.57;10.37;;;21.70;99.90;;;;;;6108681;23;20407;-68
2021/06/29 04:28:44;;;;;;;11.30;10.30;;;22.00;58.50;;;;;;6109151;23;20673;-68
2021/06/29 04:31:10;;;;;;;11.37;10.27;;;22.30;7.80;;;;;;6099189;23;20426;-68
2021/06/29 04:33:35;;;;;;;10.60;9.50;;;22.40;1.00;;;;;;6108772;23;20395;-68
2021/06/29 04:36:02;;;;;;;11.07;10.07;;;22.50;1.00;;;;;;6099240;23;20233;-68
2021/06/29 04:38:28;;;;;;;10.93;9.90;;;23.00;1.00;;;;;;6108535;23;20230;-68
2021/06/29 04:40:53;;;;;;;10.87;9.63;;;23.20;1.00;;;;;;6107476;23;20930;-68
2021/06/29 04:43:19;;;;;;;10.00;8.30;;;23.50;1.00;;;;;;6108635;23;20151;-68
2021/06/29 04:45:45;;;;;;;10.43;9.43;;;23.80;99.90;;;;;;6108797;23;20152;-68
2021/06/29 04:48:10;;;;;;;10.03;9.13;;;23.90;99.90;;;;;;6108410;23;20230;-68
2021/06/29 04:50:36;;;;;;;9.50;8.67;;;23.70;99.90;;;;;;6108470;23;20159;-68
2021/06/29 04:53:01;;;;;;;9.97;8.90;;;23.40;99.90;;;;;;6098835;23;20187;-68
2021/06/29 04:55:27;;;;;;;12.70;9.33;;;23.30;1.00;;;;;;6108232;23;20160;-68
2021/06/29 04:57:53;;;;;;;11.20;10.20;;;23.40;99.90;;;;;;6108600;23;20328;-68
2021/06/29 05:00:20;;;;;;;9.23;8.43;;;23.80;99.90;;;;;;6108390;23;20155;-68
2021/06/29 05:02:45;;;;;;;9.33;8.53;;;24.00;99.90;;;;;;6098736;23;20253;-68
2021/06/29 05:05:11;;;;;;;8.97;8.17;;;24.10;74.90;;;;;;6108442;23;20831;-68
2021/06/29 05:07:38;;;;;;;14.43;8.90;;;24.00;11.00;;;;;;6098824;23;20164;-68
2021/06/29 05:10:06;;;;;;;9.60;8.80;;;24.40;1.00;;;;;;6098770;23;20778;-68
2021/06/29 05:12:32;;;;;;;10.23;9.27;;;24.40;99.90;;;;;;6098437;23;20419;-68
2021/06/29 05:14:58;;;;;;;9.43;8.53;;;23.90;1.00;;;;;;6108307;23;20390;-68
2021/06/29 05:17:23;;;;;;;11.73;8.40;;;23.90;1.00;;;;;;6108226;23;20388;-68
2021/06/29 05:19:49;;;;;;;10.17;8.87;;;24.00;1.00;;;;;;6098741;23;20163;-67
2021/06/29 05:22:14;;;;;;;9.93;8.70;;;24.20;1.00;;;;;;6108208;23;20166;-67
2021/06/29 05:24:40;;;;;;;17.70;9.50;;;24.30;99.90;;;;;;6108289;23;20242;-68
2021/06/29 05:27:06;;;;;;;9.00;8.27;;;24.50;99.90;;;;;;6108006;23;20194;-68
2021/06/29 05:29:31;;;;;;;9.70;8.60;;;25.00;1.00;;;;;;6108339;23;20160;-68
2021/06/29 05:31:57;;;;;;;9.03;8.13;;;25.30;1.00;;;;;;6108117;23;20254;-68
2021/06/29 05:34:22;;;;;;;8.60;7.90;;;25.70;1.00;;;;;;6121675;23;20226;-68
2021/06/29 05:36:48;;;;;;;8.87;8.03;;;25.60;1.00;;;;;;6108050;23;20187;-68
2021/06/29 05:39:15;;;;;;;11.93;8.40;;;25.70;1.00;;;;;;6108361;23;20179;-68
2021/06/29 05:41:41;;;;;;;9.53;8.10;;;26.00;1.00;;;;;;6108015;23;20164;-68
2021/06/29 05:44:07;;;;;;;9.00;7.90;;;26.20;99.90;;;;;;6108033;23;20391;-67
2021/06/29 05:46:33;;;;;;;7.77;7.07;;;26.30;99.90;;;;;;6107740;23;20407;-69
2021/06/29 05:48:58;;;;;;;7.80;7.10;;;26.20;99.90;;;;;;6107942;23;20391;-68
2021/06/29 05:51:24;;;;;;;7.70;7.10;;;26.10;99.90;;;;;;6120998;23;20220;-68
2021/06/29 05:53:50;;;;;;;6.97;6.37;;;26.30;99.90;;;;;;6108182;23;20175;-68
2021/06/29 05:56:16;;;;;;;6.00;5.60;;;26.30;45.80;;;;;;6107706;23;20590;-68
2021/06/29 05:58:41;;;;;;;6.53;5.93;;;26.20;99.90;;;;;;6107381;23;20172;-68
2021/06/29 06:01:08;;;;;;;6.77;6.17;;;26.20;1.00;;;;;;6108136;23;20519;-69
2021/06/29 06:03:34;;;;;;;6.33;5.80;;;26.30;1.00;;;;;;6098218;23;20678;-69
2021/06/29 06:05:59;;;;;;;6.67;6.07;;;26.00;99.90;;;;;;6107926;23;20400;-69
2021/06/29 06:08:26;;;;;;;6.10;5.60;;;25.50;1.00;;;;;;6107900;23;20583;-69
2021/06/29 06:10:54;;;;;;;6.53;6.00;;;25.50;1.00;;;;;;6120692;23;20167;-69
2021/06/29 06:13:20;;;;;;;5.77;5.33;;;25.60;99.90;;;;;;6107702;23;20392;-70
2021/06/29 06:15:45;;;;;;;6.87;6.27;;;25.30;99.90;;;;;;6107694;23;20773;-68
2021/06/29 06:18:11;;;;;;;6.53;5.93;;;24.90;99.90;;;;;;6120806;23;20402;-65
2021/06/29 06:20:37;;;;;;;6.90;6.30;;;25.20;99.90;;;;;;6121103;23;20163;-65
2021/06/29 06:23:04;;;;;;;6.83;6.33;;;25.30;1.00;;;;;;6107783;23;20159;-65
2021/06/29 06:25:30;;;;;;;7.40;6.80;;;25.40;1.00;;;;;;6107664;23;20407;-68
2021/06/29 06:27:55;;;;;;;6.53;5.93;;;25.50;1.00;;;;;;6098095;23;20739;-67
2021/06/29 06:30:21;;;;;;;7.20;6.60;;;25.80;99.90;;;;;;6107441;23;20400;-67
2021/06/29 06:32:47;;;;;;;8.17;6.30;;;26.00;1.00;;;;;;6121187;23;20472;-67
2021/06/29 06:35:13;;;;;;;7.23;6.67;;;26.50;99.90;;;;;;6107720;23;20399;-68
2021/06/29 06:37:38;;;;;;;5.70;5.17;;;26.70;1.00;;;;;;6107588;23;20144;-67
2021/06/29 06:40:05;;;;;;;7.93;5.43;;;26.70;93.90;;;;;;6107530;23;20462;-70
2021/06/29 06:42:32;;;;;;;6.40;5.90;;;27.10;1.00;;;;;;6107541;23;20159;-67
2021/06/29 06:44:57;;;;;;;7.03;6.43;;;27.40;99.90;;;;;;6107250;23;20391;-67
2021/06/29 06:47:23;;;;;;;7.40;6.77;;;27.50;25.20;;;;;;6107277;23;20398;-68
2021/06/29 06:49:50;;;;;;;7.43;6.73;;;27.40;99.90;;;;;;6106425;23;20387;-71
2021/06/29 06:52:15;;;;;;;7.20;6.60;;;27.70;85.20;;;;;;6107438;23;20518;-66
2021/06/29 06:54:41;;;;;;;7.13;6.20;;;27.60;1.00;;;;;;6098099;23;20481;-70
2021/06/29 06:57:07;;;;;;;6.57;6.00;;;27.80;1.00;;;;;;6096267;23;20238;-65
2021/06/29 06:59:33;;;;;;;7.20;6.60;;;28.60;99.90;;;;;;6107023;23;20191;-70
2021/06/29 07:01:58;;;;;;;7.33;6.63;;;28.90;99.90;;;;;;6108055;23;20383;-70
2021/06/29 07:04:24;;;;;;;7.00;6.50;;;30.60;1.00;;;;;;6106841;23;20162;-67
2021/06/29 07:06:49;;;;;;;6.20;5.70;;;31.10;1.00;;;;;;6107193;23;20187;-71
2021/06/29 07:09:15;;;;;;;7.17;6.47;;;32.70;1.00;;;;;;6107141;23;20217;-67
2021/06/29 07:11:42;;;;;;;10.80;7.07;;;33.00;1.00;;;;;;6106998;23;20262;-70
2021/06/29 07:14:07;;;;;;;8.57;6.20;;;32.80;1.00;;;;;;6107227;23;20488;-68
2021/06/29 07:16:33;;;;;;;7.30;6.70;;;31.90;1.00;;;;;;6106951;23;20450;-68
2021/06/29 07:18:58;;;;;;;6.77;6.20;;;31.80;1.00;;;;;;6107097;23;20160;-65
2021/06/29 07:21:26;;;;;;;7.90;6.50;;;31.20;1.00;;;;;;6106873;23;20639;-68
2021/06/29 07:23:53;;;;;;;7.70;6.90;;;31.00;1.00;;;;;;6120727;23;20159;-68
2021/06/29 07:26:18;;;;;;;7.40;6.70;;;30.60;1.00;;;;;;6120343;23;20415;-68
2021/06/29 07:28:44;;;;;;;7.27;6.77;;;30.90;1.00;;;;;;6107189;23;20399;-70
2021/06/29 07:31:10;;;;;;;7.57;5.97;;;31.70;1.00;;;;;;6120032;23;20180;-69
2021/06/29 07:33:36;;;;;;;7.83;7.00;;;32.20;1.00;;;;;;6107066;23;20154;-71
2021/06/29 07:36:02;;;;;;;6.97;6.40;;;31.40;1.00;;;;;;6106935;23;20478;-68
2021/06/29 07:38:27;;;;;;;6.47;5.87;;;31.20;1.00;;;;;;6106866;23;20152;-71
2021/06/29 07:40:53;;;;;;;6.87;6.37;;;30.80;1.00;;;;;;6107117;23;20571;-71
2021/06/29 07:43:20;;;;;;;6.90;6.30;;;30.20;25.80;;;;;;6107057;23;20666;-71
2021/06/29 07:45:45;;;;;;;8.13;7.13;;;29.90;90.30;;;;;;6120576;23;20204;-71
2021/06/29 07:48:11;;;;;;;6.03;5.53;;;29.40;99.90;;;;;;6106828;23;20455;-71
2021/06/29 07:50:37;;;;;;;6.23;5.73;;;29.50;99.90;;;;;;6097453;23;20156;-71
2021/06/29 07:53:04;;;;;;;7.00;6.43;;;29.90;99.90;;;;;;6107001;23;20532;-70
2021/06/29 07:55:31;;;;;;;7.57;6.97;;;30.20;9.40;;;;;;6107295;23;20166;-73
2021/06/29 07:57:57;;;;;;;6.00;5.57;;;30.10;2.00;;;;;;6107625;23;20499;-71
2021/06/29 08:00:26;;;;;;;7.63;7.00;;;29.80;99.90;;;;;;6106898;23;20468;-69
2021/06/29 08:02:51;;;;;;;7.40;6.90;;;29.80;99.90;;;;;;6107160;23;20399;-73
2021/06/29 08:05:17;;;;;;;7.10;6.50;;;29.80;99.90;;;;;;6106615;23;20490;-72
2021/06/29 08:07:43;;;;;;;8.10;7.33;;;30.30;28.60;;;;;;6107282;23;20219;-73
2021/06/29 08:10:10;;;;;;;6.73;6.13;;;29.60;99.90;;;;;;6097374;23;20164;-72
2021/06/29 08:12:36;;;;;;;7.90;7.30;;;29.40;99.90;;;;;;6097515;23;20254;-69
2021/06/29 08:15:03;;;;;;;8.80;7.90;;;28.60;1.00;;;;;;6098572;23;20395;-70
2021/06/29 08:17:28;;;;;;;8.10;7.40;;;28.80;1.00;;;;;;6107542;23;20713;-71
2021/06/29 08:19:55;;;;;;;8.10;7.50;;;28.40;1.00;;;;;;6108067;23;20384;-72
2021/06/29 08:22:20;;;;;;;8.83;8.13;;;28.60;1.00;;;;;;6108590;23;20155;-72
2021/06/29 08:24:46;;;;;;;7.43;6.83;;;28.30;1.00;;;;;;6121963;23;20409;-71
2021/06/29 08:27:14;;;;;;;8.90;8.10;;;28.70;1.00;;;;;;6108239;23;20403;-70
2021/06/29 08:29:44;;;;;;;8.57;7.83;;;28.90;1.00;;;;;;6108577;23;20575;-71
2021/06/29 08:32:11;;;;;;;8.47;7.67;;;28.60;1.00;;;;;;6108740;23;20749;-72
2021/06/29 08:34:37;;;;;;;8.70;7.67;;;28.20;1.00;;;;;;6097577;23;20410;-71
2021/06/29 08:37:03;;;;;;;8.10;7.40;;;28.10;1.00;;;;;;6108451;23;20810;-73
2021/06/29 08:39:29;;;;;;;7.60;6.90;;;27.70;1.00;;;;;;6121889;23;20586;-74
2021/06/29 08:41:55;;;;;;;7.37;6.87;;;27.90;99.90;;;;;;6108672;23;20395;-71
2021/06/29 08:44:21;;;;;;;8.10;7.40;;;28.10;99.90;;;;;;6108060;23;20269;-73
2021/06/29 08:46:47;;;;;;;7.50;7.00;;;28.30;99.90;;;;;;6122021;23;20501;-73
2021/06/29 08:49:12;;;;;;;8.77;7.90;;;28.00;99.90;;;;;;6108263;23;20534;-72
2021/06/29 08:51:39;;;;;;;9.17;8.40;;;27.90;99.90;;;;;;6108225;23;20194;-71
2021/06/29 08:54:05;;;;;;;8.43;7.73;;;27.80;99.90;;;;;;6122200;23;20191;-71
2021/06/29 08:56:32;;;;;;;8.50;7.70;;;27.80;99.90;;;;;;6109094;23;20398;-71
2021/06/29 08:58:59;;;;;;;8.40;7.70;;;27.50;1.00;;;;;;6108295;23;20419;-70
2021/06/29 09:01:26;;;;;;;9.40;8.50;;;27.50;44.80;;;;;;6108631;23;20453;-67
2021/06/29 09:03:52;;;;;;;9.43;8.63;;;27.50;48.70;;;;;;6108524;23;20399;-68
2021/06/29 09:06:31;;;;;;;9.23;8.47;;;27.30;99.90;;;;;;6097237;23;20773;-68
2021/06/29 09:08:57;;;;;;;8.33;7.53;;;27.60;99.90;;;;;;6108195;23;20403;-69
2021/06/29 09:11:22;;;;;;;7.90;7.10;;;28.00;1.00;;;;;;6108156;23;20430;-69
2021/06/29 09:14:09;;;;;;;11.20;8.27;;;27.80;1.00;;;;;;6108335;23;20152;-69
2021/06/29 09:16:35;;;;;;;9.10;8.40;;;28.00;1.00;;;;;;6107947;23;20148;-69
2021/06/29 09:19:01;;;;;;;7.50;6.90;;;27.70;99.90;;;;;;6108084;23;20501;-69
2021/06/29 09:21:26;;;;;;;8.70;7.90;;;28.00;1.00;;;;;;6121189;23;20239;-68
2021/06/29 09:23:53;;;;;;;8.33;7.60;;;28.30;1.00;;;;;;6108240;23;20402;-68
2021/06/29 09:26:26;;;;;;;8.27;7.57;;;28.30;99.90;;;;;;6107629;23;20171;-68
2021/06/29 09:28:57;;;;;;;11.27;7.73;;;28.00;99.90;;;;;;6107986;23;20487;-68
2021/06/29 09:31:27;;;;;;;8.20;7.50;;;27.50;1.00;;;;;;6108203;23;20478;-68
2021/06/29 09:34:04;;;;;;;7.87;7.20;;;27.60;99.90;;;;;;6107898;23;20399;-65
2021/06/29 09:36:32;;;;;;;8.40;7.53;;;28.00;99.90;;;;;;6107860;23;20443;-69
2021/06/29 09:39:18;;;;;;;7.23;6.50;;;28.30;1.00;;;;;;6107688;23;20394;-69
2021/06/29 09:41:47;;;;;;;8.90;7.40;;;28.70;1.00;;;;;;6108134;23;20412;-69
2021/06/29 09:44:18;;;;;;;8.90;8.10;;;29.00;1.00;;;;;;6108018;23;20391;-67
2021/06/29 09:46:45;;;;;;;8.67;7.87;;;28.90;1.00;;;;;;6106528;23;20411;-65
2021/06/29 09:49:14;;;;;;;8.30;7.60;;;29.20;1.00;;;;;;6097491;23;20423;-65
2021/06/29 09:51:41;;;;;;;9.80;8.20;;;28.90;1.00;;;;;;6106298;23;20419;-68
2021/06/29 09:54:09;;;;;;;8.03;7.33;;;28.00;99.90;;;;;;6097541;23;20395;-67
2021/06/29 09:56:38;;;;;;;8.70;8.00;;;27.70;1.00;;;;;;6107776;23;20392;-67
2021/06/29 09:59:10;;;;;;;8.77;7.97;;;27.40;1.00;;;;;;6107510;23;20842;-67
2021/06/29 10:01:36;;;;;;;8.77;8.07;;;27.20;99.90;;;;;;6108026;23;20379;-67
2021/06/29 10:04:03;;;;;;;8.97;8.13;;;27.10;99.90;;;;;;6107768;23;20490;-67
2021/06/29 10:06:31;;;;;;;9.63;8.70;;;26.90;1.00;;;;;;6107220;23;20627;-67
2021/06/29 10:09:16;;;;;;;8.90;8.20;;;26.40;1.00;;;;;;6097390;23;20688;-68
2021/06/29 10:11:51;;;;;;;10.13;9.03;;;26.40;99.90;;;;;;6107630;23;20467;-68
2021/06/29 10:14:17;;;;;;;10.20;9.40;;;26.30;99.90;;;;;;6097135;23;20398;-69
2021/06/29 10:16:51;;;;;;;9.80;9.00;;;26.20;1.00;;;;;;6107660;23;20422;-68
2021/06/29 10:19:47;;;;;;;8.97;8.27;;;26.30;99.90;;;;;;6107303;23;20383;-68
2021/06/29 10:22:13;;;;;;;10.03;9.20;;;26.60;1.00;;;;;;6107226;23;20474;-65
2021/06/29 10:24:39;;;;;;;11.30;10.23;;;26.70;1.00;;;;;;6107413;23;20419;-70
2021/06/29 10:27:07;;;;;;;11.10;10.10;;;26.60;99.90;;;;;;6107025;23;20465;-69
2021/06/29 10:29:35;;;;;;;10.70;9.73;;;26.90;99.90;;;;;;6106915;23;20462;-70
2021/06/29 10:32:06;;;;;;;10.73;9.60;;;27.10;99.90;;;;;;6107288;23;20867;-68
2021/06/29 10:34:33;;;;;;;11.13;10.00;;;27.00;1.00;;;;;;6107161;23;20403;-71
2021/06/29 10:36:58;;;;;;;10.83;9.83;;;26.90;1.00;;;;;;6107013;23;20422;-67
2021/06/29 10:39:30;;;;;;;10.97;10.13;;;26.90;99.90;;;;;;6107195;23;20709;-67
2021/06/29 10:42:05;;;;;;;12.63;11.03;;;26.70;1.00;;;;;;6097634;23;20242;-68
2021/06/29 10:44:37;;;;;;;13.07;11.87;;;26.70;1.00;;;;;;6107076;23;20861;-69
2021/06/29 10:47:22;;;;;;;12.70;11.40;;;26.80;80.80;;;;;;6097015;23;20400;-69
2021/06/29 10:49:50;;;;;;;11.40;10.40;;;27.00;99.90;;;;;;6107806;23;20406;-69
2021/06/29 10:52:22;;;;;;;11.90;10.70;;;27.10;1.00;;;;;;6097463;23;20477;-69
2021/06/29 10:54:56;;;;;;;11.50;10.37;;;26.90;99.90;;;;;;6106994;23;20418;-70
2021/06/29 10:57:43;;;;;;;10.60;9.53;;;26.80;1.00;;;;;;6106587;23;20406;-70
2021/06/29 11:00:21;;;;;;;11.60;10.60;;;26.40;29.30;;;;;;6120097;23;20851;-69
2021/06/29 11:03:01;;;;;;;15.60;11.03;;;26.40;99.90;;;;;;6106912;23;20846;-68
2021/06/29 11:05:33;;;;;;;10.93;9.73;;;26.70;1.00;;;;;;6107128;23;20391;-67
2021/06/29 11:08:08;;;;;;;11.37;10.33;;;26.70;93.90;;;;;;6107075;23;20383;-67
2021/06/29 11:10:37;;;;;;;10.33;9.53;;;26.80;1.00;;;;;;6107733;23;20489;-66
2021/06/29 11:13:04;;;;;;;11.40;10.33;;;27.00;1.00;;;;;;6107133;23;20415;-66
2021/06/29 11:15:43;;;;;;;10.00;9.20;;;27.30;99.90;;;;;;6107246;23;20684;-66
2021/06/29 11:18:11;;;;;;;11.93;10.93;;;27.40;99.90;;;;;;6106771;23;20375;-67
2021/06/29 11:20:46;;;;;;;16.33;11.70;;;27.30;1.00;;;;;;6097345;23;20839;-68
2021/06/29 11:23:29;;;;;;;11.00;9.90;;;27.40;1.00;;;;;;6107835;23;20445;-66
2021/06/29 11:25:57;;;;;;;12.03;10.93;;;27.60;17.30;;;;;;6097838;23;20411;-66
2021/06/29 11:28:28;;;;;;;11.20;10.20;;;27.40;1.00;;;;;;6106877;23;20396;-65
2021/06/29 11:31:19;;;;;;;11.77;10.77;;;27.40;99.90;;;;;;6107195;23;20376;-66
2021/06/29 11:33:59;;;;;;;12.40;11.40;;;27.70;90.90;;;;;;6107071;23;20442;-70
2021/06/29 11:36:25;;;;;;;13.23;12.03;;;27.30;1.00;;;;;;6097589;23;20398;-67
2021/06/29 11:39:22;;;;;;;13.20;12.10;;;27.60;1.00;;;;;;6107004;23;20384;-66
2021/06/29 11:41:53;;;;;;;12.00;10.80;;;27.80;1.00;;;;;;6107492;23;20136;-66
2021/06/29 11:44:19;;;;;;;11.23;10.13;;;28.00;1.00;;;;;;6097675;23;20387;-66
2021/06/29 11:46:53;;;;;;;11.83;10.77;;;28.30;99.90;;;;;;6097985;23;20603;-67
2021/06/29 11:49:31;;;;;;;10.93;10.07;;;28.50;99.90;;;;;;6107563;23;20219;-68
2021/06/29 11:51:59;;;;;;;9.57;8.87;;;28.60;1.00;;;;;;6109181;23;20419;-71
2021/06/29 11:54:29;;;;;;;9.80;9.00;;;28.70;1.00;;;;;;6108878;23;20731;-68
2021/06/29 11:57:01;;;;;;;8.57;7.67;;;28.30;1.00;;;;;;6108965;23;20392;-68
2021/06/29 11:59:31;;;;;;;9.17;7.20;;;28.00;99.90;;;;;;6108927;23;20388;-69
2021/06/29 12:02:06;;;;;;;8.37;7.67;;;27.50;18.80;;;;;;6099650;23;20388;-71
2021/06/29 12:04:33;;;;;;;7.37;6.67;;;27.40;1.00;;;;;;6122193;23;20403;-71
2021/06/29 12:07:06;;;;;;;7.93;7.33;;;27.80;1.00;;;;;;6108626;23;20395;-72
2021/06/29 12:09:34;;;;;;;7.13;6.43;;;28.00;56.70;;;;;;6108736;23;20388;-72
2021/06/29 12:12:21;;;;;;;7.40;6.80;;;28.50;1.00;;;;;;6108564;23;20458;-70
2021/06/29 12:14:56;;;;;;;6.83;6.13;;;29.10;99.90;;;;;;6108634;23;20390;-72
2021/06/29 12:17:21;;;;;;;6.63;6.13;;;29.50;1.00;;;;;;6122440;23;20387;-72
2021/06/29 12:19:47;;;;;;;7.30;5.93;;;29.60;99.90;;;;;;6108177;23;20392;-71
2021/06/29 12:22:13;;;;;;;7.07;6.53;;;29.60;99.90;;;;;;6108593;23;20163;-72
2021/06/29 12:24:38;;;;;;;6.17;5.67;;;29.80;99.90;;;;;;6108636;23;20156;-68
2021/06/29 12:27:17;;;;;;;6.53;6.03;;;29.70;99.90;;;;;;6121866;23;20175;-67
2021/06/29 12:29:42;;;;;;;7.37;6.77;;;29.40;99.90;;;;;;6099027;23;20218;-71
2021/06/29 12:32:19;;;;;;;6.27;5.67;;;28.80;1.00;;;;;;6108551;23;20423;-69
2021/06/29 12:34:45;;;;;;;6.13;5.37;;;28.80;1.00;;;;;;6108608;23;20139;-70
2021/06/29 12:37:12;;;;;;;6.07;5.57;;;28.90;99.90;;;;;;6098836;23;20759;-70
2021/06/29 12:39:41;;;;;;;7.17;6.57;;;28.60;1.00;;;;;;6121774;23;20400;-73
2021/06/29 12:42:15;;;;;;;8.03;6.77;;;28.60;1.00;;;;;;6097739;23;20399;-73
2021/06/29 12:44:41;;;;;;;6.43;5.93;;;28.60;1.00;;;;;;6108709;23;20395;-72
2021/06/29 12:47:12;;;;;;;9.00;8.10;;;28.30;1.00;;;;;;6108521;23;20482;-72